Time;durP1;ratioP1;P1;durP2;ratioP2;P2;SDS_P1;SDS_P2;PMS_P1;PMS_P2;Temp;Humidity;BMP_temperature;BMP_pressure;BME280_temperature;BME280_humidity;BME280_pressure;Samples;Min_cycle;Max_cycle;Signal;HPM_P1;HPM_P2
2022/06/25 00:01:50;;;;;;;5.50;5.07;;;;;;;;;;5053600;28;20232;-57
2022/06/25 00:07:01;;;;;;;5.30;4.90;;;;;;;;;;5055356;28;20228;-57
2022/06/25 00:09:27;;;;;;;6.33;5.73;;;;;;;;;;5054984;28;20205;-57
2022/06/25 00:14:40;;;;;;;6.23;5.73;;;;;;;;;;5055203;28;20681;-57
2022/06/25 00:17:06;;;;;;;6.03;5.53;;;;;;;;;;5054970;28;20776;-57
2022/06/25 00:19:32;;;;;;;5.73;5.23;;;;;;;;;;5054822;28;20208;-57
2022/06/25 00:21:58;;;;;;;6.30;5.80;;;;;;;;;;5055083;28;20225;-57
2022/06/25 00:24:24;;;;;;;5.60;5.20;;;;;;;;;;5055147;28;20200;-57
2022/06/25 00:26:50;;;;;;;5.47;5.07;;;;;;;;;;5055027;28;20271;-57
2022/06/25 00:29:16;;;;;;;5.20;4.80;;;;;;;;;;5054890;28;20223;-57
2022/06/25 00:31:44;;;;;;;6.20;5.70;;;;;;;;;;5054887;28;20743;-56
2022/06/25 00:34:10;;;;;;;6.40;5.90;;;;;;;;;;5055003;28;20217;-56
2022/06/25 00:36:36;;;;;;;6.03;5.53;;;;;;;;;;5053666;28;20559;-57
2022/06/25 00:39:02;;;;;;;6.37;5.87;;;;;;;;;;5054775;28;20204;-56
2022/06/25 00:41:29;;;;;;;6.87;6.37;;;;;;;;;;5054733;28;20238;-56
2022/06/25 00:43:55;;;;;;;7.17;6.57;;;;;;;;;;5054772;28;20236;-56
2022/06/25 00:46:21;;;;;;;6.93;6.33;;;;;;;;;;5054544;28;20266;-56
2022/06/25 00:48:48;;;;;;;5.83;5.33;;;;;;;;;;5054491;28;20670;-57
2022/06/25 00:51:15;;;;;;;6.83;6.27;;;;;;;;;;5054608;28;20239;-56
2022/06/25 00:53:42;;;;;;;8.20;7.60;;;;;;;;;;5054571;28;20204;-57
2022/06/25 00:56:08;;;;;;;8.07;7.47;;;;;;;;;;5054375;28;20200;-56
2022/06/25 00:58:34;;;;;;;8.77;8.07;;;;;;;;;;5053969;28;20295;-57
2022/06/25 01:01:00;;;;;;;9.10;8.40;;;;;;;;;;5054049;28;20208;-56
2022/06/25 01:03:29;;;;;;;8.13;7.53;;;;;;;;;;5054013;28;20207;-56
2022/06/25 01:05:56;;;;;;;7.03;6.53;;;;;;;;;;5054164;28;20286;-55
2022/06/25 01:08:23;;;;;;;9.43;8.73;;;;;;;;;;5053936;28;20535;-56
2022/06/25 01:10:49;;;;;;;9.60;8.90;;;;;;;;;;5053801;28;20286;-56
2022/06/25 01:13:15;;;;;;;11.17;10.27;;;;;;;;;;5052560;28;20266;-56
2022/06/25 01:15:41;;;;;;;8.53;7.90;;;;;;;;;;5052210;28;20239;-57
2022/06/25 01:18:07;;;;;;;9.47;8.67;;;;;;;;;;5050289;28;20204;-56
2022/06/25 01:20:34;;;;;;;9.73;9.03;;;;;;;;;;5053058;28;20212;-56
2022/06/25 01:23:01;;;;;;;10.17;9.37;;;;;;;;;;5053350;28;20196;-55
2022/06/25 01:25:33;;;;;;;9.83;9.13;;;;;;;;;;5049902;28;20402;-55
2022/06/25 01:27:59;;;;;;;10.77;9.77;;;;;;;;;;5053088;28;20239;-55
2022/06/25 01:30:25;;;;;;;10.90;10.00;;;;;;;;;;5052478;28;20201;-56
2022/06/25 01:32:52;;;;;;;12.13;10.77;;;;;;;;;;5052786;28;20215;-56
2022/06/25 01:35:18;;;;;;;11.67;10.57;;;;;;;;;;5052989;28;20287;-56
2022/06/25 01:37:44;;;;;;;10.63;9.83;;;;;;;;;;5052761;28;20633;-56
2022/06/25 01:40:12;;;;;;;11.47;10.33;;;;;;;;;;5053145;28;20229;-55
2022/06/25 01:45:22;;;;;;;11.10;10.10;;;;;;;;;;5053443;28;20219;-55
2022/06/25 01:47:48;;;;;;;9.00;8.30;;;;;;;;;;5053599;28;20296;-55
2022/06/25 01:50:14;;;;;;;11.97;11.00;;;;;;;;;;5053420;28;20275;-55
2022/06/25 01:52:42;;;;;;;10.57;9.70;;;;;;;;;;5053400;28;20200;-55
2022/06/25 01:55:09;;;;;;;10.70;9.80;;;;;;;;;;5053334;28;20250;-55
2022/06/25 01:57:37;;;;;;;10.27;9.37;;;;;;;;;;5053130;28;20200;-55
2022/06/25 02:00:04;;;;;;;9.63;8.93;;;;;;;;;;5053293;28;20200;-55
2022/06/25 02:02:30;;;;;;;8.60;7.90;;;;;;;;;;5053029;28;20208;-55
2022/06/25 02:04:56;;;;;;;11.40;10.50;;;;;;;;;;5053249;28;20201;-56
2022/06/25 02:07:22;;;;;;;10.03;9.23;;;;;;;;;;5052963;28;20693;-56
2022/06/25 02:09:48;;;;;;;11.30;10.40;;;;;;;;;;5052840;28;20248;-57
2022/06/25 02:12:14;;;;;;;11.20;10.23;;;;;;;;;;5052995;28;20543;-57
2022/06/25 02:14:42;;;;;;;11.17;10.33;;;;;;;;;;5052917;28;20733;-57
2022/06/25 02:17:08;;;;;;;10.57;9.77;;;;;;;;;;5052837;28;20312;-57
2022/06/25 02:19:34;;;;;;;10.07;9.33;;;;;;;;;;5052938;28;20203;-56
2022/06/25 02:22:00;;;;;;;11.13;10.23;;;;;;;;;;5052751;28;20262;-55
2022/06/25 02:24:26;;;;;;;11.83;10.63;;;;;;;;;;5052533;28;20203;-56
2022/06/25 02:26:52;;;;;;;8.37;7.63;;;;;;;;;;5052623;28;20637;-56
2022/06/25 02:29:18;;;;;;;8.80;8.10;;;;;;;;;;5052723;28;20197;-56
2022/06/25 02:31:45;;;;;;;10.57;9.77;;;;;;;;;;5052781;28;20231;-56
2022/06/25 02:34:11;;;;;;;10.37;9.47;;;;;;;;;;5052718;28;20224;-56
2022/06/25 02:36:37;;;;;;;10.47;9.67;;;;;;;;;;5052581;28;20687;-55
2022/06/25 02:39:03;;;;;;;10.53;9.63;;;;;;;;;;5052560;28;20200;-55
2022/06/25 02:41:29;;;;;;;10.67;9.60;;;;;;;;;;5052428;28;20261;-55
2022/06/25 02:43:55;;;;;;;10.53;9.73;;;;;;;;;;5052669;28;20667;-56
2022/06/25 02:46:21;;;;;;;10.53;9.73;;;;;;;;;;5052328;28;20225;-55
2022/06/25 02:48:48;;;;;;;10.67;9.77;;;;;;;;;;5052442;28;20782;-55
2022/06/25 02:51:14;;;;;;;10.00;9.10;;;;;;;;;;5052409;28;20618;-55
2022/06/25 02:53:40;;;;;;;11.27;10.27;;;;;;;;;;5052163;28;20222;-55
2022/06/25 02:58:54;;;;;;;10.13;9.23;;;;;;;;;;5052216;28;20729;-57
2022/06/25 03:01:20;;;;;;;11.50;10.30;;;;;;;;;;5052188;28;20205;-56
2022/06/25 03:03:48;;;;;;;11.87;10.77;;;;;;;;;;5052204;28;20210;-56
2022/06/25 03:06:14;;;;;;;12.40;11.40;;;;;;;;;;5052356;28;20228;-56
2022/06/25 03:08:40;;;;;;;10.50;9.53;;;;;;;;;;5051135;28;20596;-56
2022/06/25 03:11:06;;;;;;;11.27;10.30;;;;;;;;;;5052169;28;20196;-56
2022/06/25 03:13:34;;;;;;;12.17;11.27;;;;;;;;;;5051912;28;20231;-56
2022/06/25 03:16:00;;;;;;;11.17;10.27;;;;;;;;;;5052080;28;20268;-56
2022/06/25 03:18:26;;;;;;;12.53;11.53;;;;;;;;;;5052058;28;20232;-57
2022/06/25 03:20:53;;;;;;;12.07;11.13;;;;;;;;;;5052011;28;20288;-56
2022/06/25 03:23:19;;;;;;;11.37;10.47;;;;;;;;;;5052097;28;20205;-54
2022/06/25 03:25:45;;;;;;;13.57;12.47;;;;;;;;;;5051790;28;20232;-57
2022/06/25 03:28:11;;;;;;;13.13;12.13;;;;;;;;;;5052164;28;20223;-57
2022/06/25 03:30:37;;;;;;;13.43;12.23;;;;;;;;;;5051826;28;20664;-54
2022/06/25 03:33:04;;;;;;;12.57;11.43;;;;;;;;;;5051839;28;20201;-57
2022/06/25 03:35:30;;;;;;;13.43;12.13;;;;;;;;;;5051866;28;20203;-57
2022/06/25 03:37:57;;;;;;;13.00;11.90;;;;;;;;;;5055723;28;20196;-57
2022/06/25 03:40:23;;;;;;;14.97;13.63;;;;;;;;;;5055823;28;20202;-56
2022/06/25 03:42:49;;;;;;;12.50;11.57;;;;;;;;;;5055693;28;20284;-56
2022/06/25 03:45:15;;;;;;;13.23;11.83;;;;;;;;;;5055584;28;20635;-55
2022/06/25 03:47:41;;;;;;;14.03;12.93;;;;;;;;;;5055610;28;20203;-56
2022/06/25 03:50:08;;;;;;;14.47;13.27;;;;;;;;;;5055651;28;20201;-56
2022/06/25 03:52:34;;;;;;;15.80;14.30;;;;;;;;;;5055473;28;20200;-56
2022/06/25 03:55:01;;;;;;;16.43;14.87;;;;;;;;;;5055576;28;20222;-56
2022/06/25 03:57:27;;;;;;;14.63;13.03;;;;;;;;;;5055435;28;20634;-56
2022/06/25 03:59:53;;;;;;;14.33;13.03;;;;;;;;;;5055464;28;20725;-55
2022/06/25 04:02:19;;;;;;;15.17;13.87;;;;;;;;;;5053840;28;20200;-56
2022/06/25 04:04:45;;;;;;;15.00;13.60;;;;;;;;;;5055293;28;20206;-56
2022/06/25 04:07:11;;;;;;;14.17;12.90;;;;;;;;;;5055346;28;20770;-56
2022/06/25 04:09:37;;;;;;;13.57;12.43;;;;;;;;;;5055234;28;20285;-56
2022/06/25 04:12:05;;;;;;;13.80;12.60;;;;;;;;;;5055528;28;20202;-56
2022/06/25 04:14:31;;;;;;;13.57;12.37;;;;;;;;;;5055179;28;20201;-55
2022/06/25 04:16:57;;;;;;;15.27;12.57;;;;;;;;;;5055102;28;20234;-56
2022/06/25 04:19:23;;;;;;;13.20;11.93;;;;;;;;;;5055196;28;20725;-55
2022/06/25 04:21:51;;;;;;;12.03;10.90;;;;;;;;;;5054895;28;20233;-55
2022/06/25 04:24:17;;;;;;;12.60;11.40;;;;;;;;;;5054947;28;20206;-55
2022/06/25 04:26:43;;;;;;;12.13;10.93;;;;;;;;;;5054735;28;20239;-56
2022/06/25 04:29:13;;;;;;;11.17;10.17;;;;;;;;;;5055047;28;20206;-56
2022/06/25 04:31:40;;;;;;;12.10;10.93;;;;;;;;;;5054934;28;20202;-55
2022/06/25 04:34:06;;;;;;;11.03;10.03;;;;;;;;;;5054905;28;20217;-55
2022/06/25 04:36:32;;;;;;;11.50;10.40;;;;;;;;;;5054707;28;20198;-56
2022/06/25 04:38:58;;;;;;;10.20;9.13;;;;;;;;;;5054568;28;20221;-56
2022/06/25 04:41:24;;;;;;;11.23;10.20;;;;;;;;;;5054810;28;20196;-56
2022/06/25 04:43:50;;;;;;;9.80;8.90;;;;;;;;;;5054535;28;20214;-56
2022/06/25 04:46:17;;;;;;;9.57;8.67;;;;;;;;;;5054391;28;20289;-56
2022/06/25 04:48:43;;;;;;;10.03;9.13;;;;;;;;;;5054530;28;20557;-56
2022/06/25 04:51:09;;;;;;;9.00;8.20;;;;;;;;;;5054617;28;20209;-56
2022/06/25 04:53:54;;;;;;;11.20;8.80;;;;;;;;;;5054340;28;20658;-56
2022/06/25 04:56:21;;;;;;;9.43;8.50;;;;;;;;;;5053639;28;20205;-56
2022/06/25 04:58:47;;;;;;;8.00;7.27;;;;;;;;;;5054183;28;20237;-56
2022/06/25 05:01:12;;;;;;;8.80;7.97;;;;;;;;;;5054200;28;20226;-56
2022/06/25 05:03:40;;;;;;;7.97;7.27;;;;;;;;;;5054267;28;20204;-56
2022/06/25 05:06:06;;;;;;;8.77;7.53;;;;;;;;;;5054023;28;20879;-56
2022/06/25 05:08:33;;;;;;;10.33;7.33;;;;;;;;;;5054104;28;20192;-56
2022/06/25 05:10:59;;;;;;;8.97;6.37;;;;;;;;;;5054167;28;20202;-56
2022/06/25 05:13:25;;;;;;;7.40;6.67;;;;;;;;;;5054167;28;20603;-56
2022/06/25 05:15:52;;;;;;;7.13;6.53;;;;;;;;;;5053656;28;20725;-57
2022/06/25 05:18:18;;;;;;;8.57;7.77;;;;;;;;;;5054062;28;20691;-56
2022/06/25 05:20:45;;;;;;;7.33;6.07;;;;;;;;;;5053948;28;20244;-56
2022/06/25 05:23:12;;;;;;;8.43;6.43;;;;;;;;;;5053785;28;20215;-56
2022/06/25 05:25:39;;;;;;;6.93;6.27;;;;;;;;;;5053684;28;20286;-56
2022/06/25 05:28:05;;;;;;;6.17;5.67;;;;;;;;;;5054135;28;20242;-56
2022/06/25 05:30:31;;;;;;;6.27;5.67;;;;;;;;;;5053783;28;20232;-56
2022/06/25 05:32:57;;;;;;;6.37;5.80;;;;;;;;;;5053952;28;20204;-56
2022/06/25 05:35:24;;;;;;;7.17;5.23;;;;;;;;;;5053717;28;20203;-56
2022/06/25 05:37:51;;;;;;;6.03;5.20;;;;;;;;;;5053533;28;20202;-56
2022/06/25 05:40:17;;;;;;;5.63;5.13;;;;;;;;;;5053449;28;20210;-56
2022/06/25 05:42:43;;;;;;;6.33;5.60;;;;;;;;;;5053314;28;20214;-55
2022/06/25 05:45:10;;;;;;;6.87;5.17;;;;;;;;;;5053489;28;20199;-56
2022/06/25 05:47:36;;;;;;;5.53;5.03;;;;;;;;;;5053396;28;20242;-56
2022/06/25 05:50:02;;;;;;;5.47;4.90;;;;;;;;;;5053419;28;20256;-55
2022/06/25 05:52:29;;;;;;;4.83;4.13;;;;;;;;;;5053248;28;20204;-56
2022/06/25 05:54:56;;;;;;;4.20;3.90;;;;;;;;;;5053309;28;20230;-55
2022/06/25 05:57:22;;;;;;;4.90;3.90;;;;;;;;;;5053288;28;20194;-59
2022/06/25 05:59:48;;;;;;;4.00;3.40;;;;;;;;;;5052421;28;20279;-55
2022/06/25 06:02:14;;;;;;;4.80;3.70;;;;;;;;;;5053113;28;20274;-55
2022/06/25 06:04:40;;;;;;;5.47;3.53;;;;;;;;;;5053121;28;20196;-56
2022/06/25 06:07:06;;;;;;;6.37;3.60;;;;;;;;;;5052997;28;20660;-56
2022/06/25 06:09:32;;;;;;;3.10;2.80;;;;;;;;;;5052915;28;20200;-55
2022/06/25 06:12:00;;;;;;;5.83;3.03;;;;;;;;;;5052890;28;20211;-56
2022/06/25 06:14:26;;;;;;;3.07;2.70;;;;;;;;;;5052931;28;20565;-56
2022/06/25 06:16:51;;;;;;;3.40;2.63;;;;;;;;;;5052389;28;20266;-55
2022/06/25 06:19:18;;;;;;;3.03;2.63;;;;;;;;;;5052719;28;20312;-55
2022/06/25 06:21:44;;;;;;;3.77;2.50;;;;;;;;;;5052487;28;20215;-55
2022/06/25 06:24:10;;;;;;;3.20;2.40;;;;;;;;;;5052423;28;20224;-55
2022/06/25 06:26:36;;;;;;;6.73;2.57;;;;;;;;;;5052221;28;20235;-55
2022/06/25 06:29:04;;;;;;;6.00;2.50;;;;;;;;;;5052547;28;20200;-55
2022/06/25 06:31:30;;;;;;;4.80;2.63;;;;;;;;;;5052619;28;20203;-55
2022/06/25 06:33:57;;;;;;;2.50;2.30;;;;;;;;;;5052308;28;20200;-55
2022/06/25 06:36:23;;;;;;;3.33;2.40;;;;;;;;;;5052513;28;20192;-55
2022/06/25 06:38:49;;;;;;;3.00;2.40;;;;;;;;;;5052084;28;20250;-56
2022/06/25 06:41:16;;;;;;;4.27;2.43;;;;;;;;;;5051713;28;20694;-56
2022/06/25 06:43:42;;;;;;;3.70;2.23;;;;;;;;;;5052094;28;20209;-55
2022/06/25 06:46:12;;;;;;;6.67;2.40;;;;;;;;;;5052239;28;20290;-56
2022/06/25 06:48:38;;;;;;;2.87;2.47;;;;;;;;;;5052129;28;20694;-55
2022/06/25 06:51:04;;;;;;;6.00;2.30;;;;;;;;;;5052123;28;20651;-55
2022/06/25 06:53:31;;;;;;;3.57;2.63;;;;;;;;;;5052347;28;20224;-56
2022/06/25 06:55:56;;;;;;;2.40;2.20;;;;;;;;;;5052333;28;20231;-55
2022/06/25 06:58:22;;;;;;;3.63;2.70;;;;;;;;;;5052434;28;20229;-55
2022/06/25 07:00:49;;;;;;;3.47;2.43;;;;;;;;;;5052046;28;20210;-55
2022/06/25 07:03:16;;;;;;;4.30;2.30;;;;;;;;;;5052124;28;20235;-55
2022/06/25 07:05:42;;;;;;;3.50;2.03;;;;;;;;;;5052203;28;20221;-54
2022/06/25 07:08:08;;;;;;;4.80;2.20;;;;;;;;;;5052098;28;20200;-55
2022/06/25 07:10:34;;;;;;;2.83;1.93;;;;;;;;;;5052394;28;20240;-55
2022/06/25 07:13:00;;;;;;;2.40;2.20;;;;;;;;;;5056346;28;20200;-56
2022/06/25 07:15:26;;;;;;;3.73;2.20;;;;;;;;;;5056149;28;20631;-55
2022/06/25 07:17:52;;;;;;;3.80;2.47;;;;;;;;;;5056085;28;20289;-54
2022/06/25 07:20:19;;;;;;;3.47;2.57;;;;;;;;;;5056054;28;20301;-55
2022/06/25 07:22:45;;;;;;;4.43;3.00;;;;;;;;;;5055989;28;20198;-54
2022/06/25 07:25:13;;;;;;;2.43;2.20;;;;;;;;;;5056066;28;20209;-56
2022/06/25 07:27:39;;;;;;;3.80;2.20;;;;;;;;;;5056070;28;20332;-53
2022/06/25 07:30:05;;;;;;;3.37;2.50;;;;;;;;;;5056079;28;20214;-55
2022/06/25 07:32:31;;;;;;;4.13;2.33;;;;;;;;;;5055568;28;20677;-53
2022/06/25 07:34:57;;;;;;;2.43;2.00;;;;;;;;;;5055804;28;20214;-53
2022/06/25 07:37:24;;;;;;;2.80;1.90;;;;;;;;;;5055835;28;20196;-54
2022/06/25 07:39:50;;;;;;;2.97;1.90;;;;;;;;;;5055706;28;20230;-55
2022/06/25 07:42:16;;;;;;;2.73;1.60;;;;;;;;;;5055767;28;20573;-55
2022/06/25 07:44:43;;;;;;;3.27;1.90;;;;;;;;;;5055868;28;20192;-55
2022/06/25 07:47:09;;;;;;;2.87;1.87;;;;;;;;;;5055049;28;20258;-55
2022/06/25 07:51:56;;;;;;;2.20;1.83;;;;;;;;;;5055347;28;20203;-55
2022/06/25 07:52:21;;;;;;;2.47;1.97;;;;;;;;;;5055073;28;20264;-55
2022/06/25 07:54:48;;;;;;;3.10;1.50;;;;;;;;;;5055192;28;20664;-55
2022/06/25 07:57:16;;;;;;;2.73;1.60;;;;;;;;;;5055470;28;20221;-55
2022/06/25 07:59:42;;;;;;;2.00;1.77;;;;;;;;;;5055250;28;20554;-55
2022/06/25 08:02:08;;;;;;;2.40;1.90;;;;;;;;;;5055328;28;20202;-55
2022/06/25 08:04:34;;;;;;;3.57;2.07;;;;;;;;;;5055093;28;20198;-56
2022/06/25 08:07:00;;;;;;;2.23;1.70;;;;;;;;;;5054717;28;20238;-53
2022/06/25 08:09:26;;;;;;;3.57;1.80;;;;;;;;;;5055050;28;20210;-54
2022/06/25 08:11:53;;;;;;;2.27;2.00;;;;;;;;;;5054951;28;20199;-53
2022/06/25 08:14:19;;;;;;;3.37;1.97;;;;;;;;;;5055280;28;20203;-56
2022/06/25 08:16:45;;;;;;;2.20;1.70;;;;;;;;;;5054834;28;20246;-54
2022/06/25 08:19:11;;;;;;;3.50;1.80;;;;;;;;;;5055225;28;20256;-54
2022/06/25 08:21:38;;;;;;;3.10;2.10;;;;;;;;;;5054728;28;20196;-54
2022/06/25 08:24:04;;;;;;;3.93;1.93;;;;;;;;;;5054723;28;20674;-54
2022/06/25 08:26:30;;;;;;;3.07;1.93;;;;;;;;;;5054266;28;20239;-54
2022/06/25 08:28:57;;;;;;;4.00;2.10;;;;;;;;;;5054486;28;20195;-55
2022/06/25 08:31:24;;;;;;;2.40;1.60;;;;;;;;;;5054792;28;20200;-54
2022/06/25 08:33:50;;;;;;;1.97;1.77;;;;;;;;;;5054838;28;20201;-54
2022/06/25 08:36:16;;;;;;;2.13;1.50;;;;;;;;;;5054737;28;20250;-54
2022/06/25 08:38:42;;;;;;;2.07;1.70;;;;;;;;;;5051087;28;20196;-54
2022/06/25 08:41:08;;;;;;;4.73;1.83;;;;;;;;;;5054430;28;20192;-54
2022/06/25 08:43:36;;;;;;;3.70;1.87;;;;;;;;;;5053957;28;20215;-54
2022/06/25 08:46:04;;;;;;;2.80;1.77;;;;;;;;;;5051779;28;20228;-54
2022/06/25 08:48:31;;;;;;;2.10;1.73;;;;;;;;;;5050962;28;20233;-55
2022/06/25 08:50:57;;;;;;;2.63;1.80;;;;;;;;;;5053675;28;20566;-54
2022/06/25 08:53:23;;;;;;;2.10;1.60;;;;;;;;;;5054209;28;20207;-54
2022/06/25 08:55:49;;;;;;;2.83;1.70;;;;;;;;;;5054109;28;20193;-54
2022/06/25 08:58:15;;;;;;;6.77;1.83;;;;;;;;;;5054157;28;20254;-54
2022/06/25 09:00:42;;;;;;;3.73;1.60;;;;;;;;;;5054222;28;20202;-55
2022/06/25 09:03:10;;;;;;;2.10;1.60;;;;;;;;;;5053805;28;20542;-55
2022/06/25 09:05:36;;;;;;;2.33;1.60;;;;;;;;;;5053775;28;20207;-55
2022/06/25 09:08:03;;;;;;;4.50;1.70;;;;;;;;;;5053593;28;20228;-55
2022/06/25 09:10:30;;;;;;;3.60;1.53;;;;;;;;;;5053594;28;20684;-54
2022/06/25 09:12:57;;;;;;;1.70;1.60;;;;;;;;;;5051785;28;20201;-54
2022/06/25 09:15:23;;;;;;;3.43;1.73;;;;;;;;;;5053309;28;20239;-55
2022/06/25 09:17:50;;;;;;;3.50;1.53;;;;;;;;;;5053695;28;20235;-55
2022/06/25 09:20:18;;;;;;;2.73;2.00;;;;;;;;;;5053776;28;20210;-56
2022/06/25 09:22:54;;;;;;;2.70;1.67;;;;;;;;;;5053683;28;20218;-55
2022/06/25 09:25:23;;;;;;;7.27;1.70;;;;;;;;;;5052490;28;20201;-55
2022/06/25 09:27:49;;;;;;;3.50;1.97;;;;;;;;;;5052862;28;20269;-55
2022/06/25 09:30:17;;;;;;;2.43;1.80;;;;;;;;;;5053446;28;20218;-54
2022/06/25 09:32:45;;;;;;;2.40;1.60;;;;;;;;;;5053637;28;20294;-55
2022/06/25 09:35:12;;;;;;;1.60;1.40;;;;;;;;;;5052663;28;20302;-55
2022/06/25 09:37:40;;;;;;;2.90;1.60;;;;;;;;;;5053481;28;20219;-55
2022/06/25 09:40:07;;;;;;;2.23;1.60;;;;;;;;;;5053487;28;20209;-55
2022/06/25 09:42:34;;;;;;;1.80;1.50;;;;;;;;;;5053134;28;20725;-55
2022/06/25 09:45:04;;;;;;;3.13;1.47;;;;;;;;;;5053201;28;20194;-55
2022/06/25 09:47:34;;;;;;;2.13;1.30;;;;;;;;;;5053215;28;20316;-55
2022/06/25 09:50:07;;;;;;;2.63;1.37;;;;;;;;;;5053024;28;20540;-55
2022/06/25 09:52:34;;;;;;;3.30;1.60;;;;;;;;;;5052841;28;20279;-54
2022/06/25 09:55:01;;;;;;;1.97;1.50;;;;;;;;;;5052896;28;20253;-55
2022/06/25 09:57:28;;;;;;;1.73;1.40;;;;;;;;;;5053227;28;20199;-55
2022/06/25 09:59:55;;;;;;;1.53;1.30;;;;;;;;;;5052757;28;20573;-55
2022/06/25 10:02:21;;;;;;;2.10;1.47;;;;;;;;;;5051082;28;20200;-55
2022/06/25 10:04:47;;;;;;;3.93;1.37;;;;;;;;;;5050597;28;20663;-54
2022/06/25 10:07:15;;;;;;;2.23;1.40;;;;;;;;;;5051817;28;20235;-54
2022/06/25 10:09:42;;;;;;;2.13;1.53;;;;;;;;;;5052011;28;20228;-56
2022/06/25 10:12:10;;;;;;;1.10;1.00;;;;;;;;;;5052260;28;20205;-56
2022/06/25 10:14:36;;;;;;;7.70;1.47;;;;;;;;;;5052370;28;20209;-56
2022/06/25 10:17:03;;;;;;;1.83;1.40;;;;;;;;;;5052139;28;20592;-56
2022/06/25 10:19:29;;;;;;;2.50;1.40;;;;;;;;;;5052361;28;20211;-56
2022/06/25 10:21:56;;;;;;;1.27;1.17;;;;;;;;;;5050073;28;20203;-55
2022/06/25 10:24:22;;;;;;;3.60;1.50;;;;;;;;;;5050365;28;20198;-56
2022/06/25 10:26:49;;;;;;;2.80;1.33;;;;;;;;;;5052056;28;20236;-56
2022/06/25 10:29:24;;;;;;;1.43;1.30;;;;;;;;;;5052134;28;20685;-56
2022/06/25 10:31:50;;;;;;;3.43;1.50;;;;;;;;;;5052204;28;20204;-56
2022/06/25 10:34:17;;;;;;;3.93;1.70;;;;;;;;;;5052121;28;20205;-56
2022/06/25 10:36:44;;;;;;;2.33;1.50;;;;;;;;;;5052085;28;20195;-53
2022/06/25 10:39:37;;;;;;;1.57;1.20;;;;;;;;;;5051846;28;20300;-53
2022/06/25 10:45:28;;;;;;;3.00;1.43;;;;;;;;;;5051541;28;20749;-53
2022/06/25 10:47:59;;;;;;;2.33;1.43;;;;;;;;;;5051302;28;20233;-53
2022/06/25 10:50:55;;;;;;;3.23;1.60;;;;;;;;;;5051379;28;20207;-53
2022/06/25 10:53:25;;;;;;;3.17;1.60;;;;;;;;;;5041406;28;20206;-53
2022/06/25 10:55:59;;;;;;;5.97;1.40;;;;;;;;;;5049578;28;20646;-53
2022/06/25 10:58:25;;;;;;;2.20;1.60;;;;;;;;;;5052269;28;20614;-53
2022/06/25 11:00:53;;;;;;;1.90;1.50;;;;;;;;;;5051849;28;20659;-53
2022/06/25 11:03:40;;;;;;;2.37;1.43;;;;;;;;;;5052035;28;20623;-54
2022/06/25 11:06:17;;;;;;;2.73;1.30;;;;;;;;;;5052214;28;20250;-53
2022/06/25 11:08:44;;;;;;;2.67;1.50;;;;;;;;;;5052326;28;20263;-53
2022/06/25 11:11:10;;;;;;;2.90;1.40;;;;;;;;;;5051862;28;20334;-53
2022/06/25 11:13:39;;;;;;;4.83;1.47;;;;;;;;;;5051947;28;20310;-54
2022/06/25 11:16:12;;;;;;;2.60;1.50;;;;;;;;;;5051489;28;20653;-54
2022/06/25 11:18:46;;;;;;;1.97;1.40;;;;;;;;;;5051976;28;20199;-54
2022/06/25 11:21:24;;;;;;;1.50;1.30;;;;;;;;;;5051877;28;20215;-54
2022/06/25 11:23:50;;;;;;;1.77;1.40;;;;;;;;;;5051819;28;20214;-55
2022/06/25 11:29:03;;;;;;;1.60;1.50;;;;;;;;;;5040304;28;20205;-55
2022/06/25 11:31:29;;;;;;;1.90;1.23;;;;;;;;;;5051912;28;20286;-56
2022/06/25 11:33:56;;;;;;;1.83;1.43;;;;;;;;;;5052112;28;20242;-55
2022/06/25 11:36:22;;;;;;;3.43;1.67;;;;;;;;;;5050336;28;20195;-55
2022/06/25 11:38:51;;;;;;;3.40;1.80;;;;;;;;;;5051742;28;20204;-54
2022/06/25 11:41:20;;;;;;;2.67;1.57;;;;;;;;;;5051630;28;20279;-55
2022/06/25 11:43:46;;;;;;;1.43;1.30;;;;;;;;;;5051787;28;20195;-55
2022/06/25 11:46:14;;;;;;;2.27;1.40;;;;;;;;;;5051630;28;20233;-55
2022/06/25 11:48:40;;;;;;;3.60;1.50;;;;;;;;;;5051910;28;20204;-55
2022/06/25 11:51:08;;;;;;;2.80;1.40;;;;;;;;;;5051676;28;20204;-57
2022/06/25 11:53:35;;;;;;;4.73;2.90;;;;;;;;;;5051736;28;20204;-56
2022/06/25 11:56:02;;;;;;;4.50;3.43;;;;;;;;;;5051463;28;20198;-56
2022/06/25 11:58:30;;;;;;;3.20;1.43;;;;;;;;;;5054548;28;20201;-55
2022/06/25 12:00:56;;;;;;;4.03;1.30;;;;;;;;;;5055444;28;20206;-56
2022/06/25 12:03:23;;;;;;;4.83;1.50;;;;;;;;;;5055373;28;20255;-55
2022/06/25 12:05:49;;;;;;;2.07;1.20;;;;;;;;;;5053337;28;20204;-55
2022/06/25 12:08:17;;;;;;;2.53;1.30;;;;;;;;;;5054823;28;20206;-54
2022/06/25 12:10:45;;;;;;;3.70;1.30;;;;;;;;;;5055149;28;20209;-55
2022/06/25 12:13:14;;;;;;;1.60;1.20;;;;;;;;;;5054840;28;20214;-56
2022/06/25 12:15:40;;;;;;;2.90;1.27;;;;;;;;;;5054727;28;20259;-56
2022/06/25 12:18:06;;;;;;;1.63;0.90;;;;;;;;;;5054738;28;20200;-55
2022/06/25 12:20:33;;;;;;;8.23;1.40;;;;;;;;;;5054788;28;20261;-56
2022/06/25 12:23:00;;;;;;;1.40;1.30;;;;;;;;;;5054739;28;20194;-55
2022/06/25 12:25:28;;;;;;;3.27;1.20;;;;;;;;;;5054916;28;20248;-55
2022/06/25 12:27:54;;;;;;;4.30;3.90;;;;;;;;;;5052509;28;20232;-54
2022/06/25 12:30:21;;;;;;;2.00;1.50;;;;;;;;;;5053350;28;20753;-55
2022/06/25 12:32:47;;;;;;;1.70;1.23;;;;;;;;;;5054619;28;20286;-55
2022/06/25 12:35:17;;;;;;;2.80;2.50;;;;;;;;;;5054314;28;20226;-55
2022/06/25 12:37:43;;;;;;;1.83;1.10;;;;;;;;;;5052562;28;20235;-56
2022/06/25 12:40:09;;;;;;;6.40;1.30;;;;;;;;;;5054112;28;20199;-55
2022/06/25 12:42:37;;;;;;;1.30;1.13;;;;;;;;;;5054151;28;20226;-55
2022/06/25 12:45:03;;;;;;;2.70;1.40;;;;;;;;;;5053675;28;20203;-54
2022/06/25 12:47:40;;;;;;;1.67;1.13;;;;;;;;;;5053897;28;20263;-55
2022/06/25 12:50:06;;;;;;;1.50;1.30;;;;;;;;;;5053823;28;20197;-55
2022/06/25 12:52:36;;;;;;;3.53;0.97;;;;;;;;;;5053972;28;20203;-55
2022/06/25 12:55:02;;;;;;;1.93;1.10;;;;;;;;;;5053839;28;20327;-55
2022/06/25 12:57:29;;;;;;;1.63;1.20;;;;;;;;;;5054066;28;20196;-55
2022/06/25 12:59:57;;;;;;;2.07;1.20;;;;;;;;;;5054146;28;20619;-54
2022/06/25 13:02:24;;;;;;;3.13;1.33;;;;;;;;;;5053971;28;20233;-55
2022/06/25 13:04:50;;;;;;;1.07;0.80;;;;;;;;;;5053837;28;20199;-54
2022/06/25 13:07:17;;;;;;;1.97;1.20;;;;;;;;;;5053417;28;20728;-55
2022/06/25 13:09:44;;;;;;;3.20;1.30;;;;;;;;;;5052503;28;20192;-55
2022/06/25 13:12:10;;;;;;;2.03;1.20;;;;;;;;;;5053982;28;20288;-55
2022/06/25 13:14:36;;;;;;;3.57;1.10;;;;;;;;;;5054264;28;20206;-55
2022/06/25 13:17:04;;;;;;;6.33;1.43;;;;;;;;;;5053230;28;20626;-55
2022/06/25 13:19:30;;;;;;;1.53;0.90;;;;;;;;;;5053365;28;20206;-54
2022/06/25 13:21:57;;;;;;;3.07;0.90;;;;;;;;;;5053585;28;20198;-55
2022/06/25 13:24:23;;;;;;;0.97;0.90;;;;;;;;;;5053770;28;20213;-55
2022/06/25 13:26:49;;;;;;;2.30;1.20;;;;;;;;;;5053451;28;20229;-54
2022/06/25 13:29:15;;;;;;;3.37;1.30;;;;;;;;;;5053040;28;20212;-55
2022/06/25 13:31:41;;;;;;;1.13;1.03;;;;;;;;;;5053266;28;20194;-55
2022/06/25 13:34:09;;;;;;;3.73;1.10;;;;;;;;;;5053317;28;20200;-55
2022/06/25 13:36:35;;;;;;;2.03;1.10;;;;;;;;;;5053818;28;20225;-55
2022/06/25 13:39:01;;;;;;;3.00;1.53;;;;;;;;;;5053618;28;20202;-55
2022/06/25 13:41:27;;;;;;;1.20;1.10;;;;;;;;;;5053301;28;20202;-55
2022/06/25 13:43:54;;;;;;;1.53;1.20;;;;;;;;;;5052941;28;20262;-55
2022/06/25 13:46:20;;;;;;;1.33;1.00;;;;;;;;;;5052607;28;20265;-55
2022/06/25 13:48:46;;;;;;;1.17;1.07;;;;;;;;;;5052968;28;20198;-56
2022/06/25 13:51:14;;;;;;;1.57;0.97;;;;;;;;;;5052924;28;20199;-55
2022/06/25 13:53:40;;;;;;;1.80;1.10;;;;;;;;;;5053511;28;20214;-55
2022/06/25 13:56:06;;;;;;;2.60;1.20;;;;;;;;;;5053468;28;20203;-55
2022/06/25 13:58:32;;;;;;;1.80;1.10;;;;;;;;;;5053520;28;20396;-56
2022/06/25 14:00:58;;;;;;;1.30;1.20;;;;;;;;;;5052678;28;20308;-56
2022/06/25 14:03:25;;;;;;;2.73;1.23;;;;;;;;;;5052712;28;20269;-56
2022/06/25 14:05:51;;;;;;;1.30;1.10;;;;;;;;;;5052605;28;20192;-56
2022/06/25 14:08:18;;;;;;;1.70;1.10;;;;;;;;;;5052449;28;20222;-56
2022/06/25 14:10:44;;;;;;;2.30;1.30;;;;;;;;;;5052444;28;20203;-56
2022/06/25 14:13:10;;;;;;;2.10;1.00;;;;;;;;;;5052371;28;20189;-56
2022/06/25 14:15:36;;;;;;;2.37;1.30;;;;;;;;;;5052332;28;20242;-56
2022/06/25 14:18:02;;;;;;;1.50;1.10;;;;;;;;;;5052341;28;20250;-55
2022/06/25 14:20:28;;;;;;;1.53;1.20;;;;;;;;;;5051745;28;20558;-55
2022/06/25 14:22:54;;;;;;;3.37;1.13;;;;;;;;;;5050949;28;20667;-56
2022/06/25 14:25:23;;;;;;;4.30;1.30;;;;;;;;;;5052033;28;20282;-56
2022/06/25 14:27:50;;;;;;;1.97;1.03;;;;;;;;;;5052583;28;20304;-55
2022/06/25 14:30:16;;;;;;;1.53;1.20;;;;;;;;;;5052068;28;20232;-55
2022/06/25 14:32:42;;;;;;;4.83;1.50;;;;;;;;;;5050572;28;20201;-54
2022/06/25 14:35:08;;;;;;;2.20;0.97;;;;;;;;;;5051925;28;20244;-55
2022/06/25 14:43:10;;;;;;;1.57;1.40;;;;;;;;;;5041466;28;20214;-55
2022/06/25 14:45:36;;;;;;;3.10;1.43;;;;;;;;;;5051887;28;20210;-55
2022/06/25 14:48:02;;;;;;;1.73;1.20;;;;;;;;;;5051734;28;20646;-55
2022/06/25 14:50:29;;;;;;;1.73;1.17;;;;;;;;;;5050031;28;20678;-55
2022/06/25 14:52:55;;;;;;;1.93;1.70;;;;;;;;;;5051808;28;20665;-55
2022/06/25 14:55:21;;;;;;;1.30;1.00;;;;;;;;;;5051659;28;20207;-55
2022/06/25 14:57:47;;;;;;;1.20;0.90;;;;;;;;;;5051894;28;20193;-55
2022/06/25 15:00:15;;;;;;;4.23;1.30;;;;;;;;;;5051603;28;20269;-55